Aviation Digital Data Service (ADDS)

Output produced by METARs form (0124 UTC 23 July 2017)
found at http://www.aviationweather.gov/adds/metars/
 
TAF MZBZ 222135Z 2300/2324 08008KT 9999 SCT020 
     PROB30 
     TEMPO 2303/2306 4000 SHRA BKN014 
     TEMPO 2306/2312 4000 SHRA BKN014 PRO30 
     TEMPO 2307/2312 3000 TSRA SCT012CB BKN040 
     PROB40 
     TEMPO 2312/2316 5000 SHRA BKN015
       
TAF MZBZ 222135Z 2300/2324 08008KT 9999 SCT020 
     PROB30 
     TEMPO 2303/2306 4000 SHRA BKN014 
     TEMPO 2306/2312 4000 SHRA BKN014 PRO30 
     TEMPO 2307/2312 3000 TSRA SCT012CB BKN040 
     PROB40 
     TEMPO 2312/2316 5000 SHRA BKN015